KBNL/BNL METAR and TAF weather

Enter ICAO airport designator
Station Type Date Time Source
KBNL METAR 2019/02/23 02:15 UTC NOAA

KBNL 230215Z AUTO 06006KT 5SM BR OVC005 13/13 A3027 RMK AO2


Station Type Date Time Source
KBNL Decoded METAR 2019/02/23 02:15 UTC NOAA

Station name not available
Feb 22, 2019 - 09:15 PM EST / 2019.02.23 0215 UTC
Wind: from the ENE (060 degrees) at 7 MPH (6 KT):0
Visibility: 5 mile(s):0
Sky conditions: overcast
Weather: mist
Temperature: 55 F (13 C)
Dew Point: 55 F (13 C)
Relative Humidity: 100%
Pressure (altimeter): 30.27 in. Hg (1025 hPa)
ob: KBNL 230215Z AUTO 06006KT 5SM BR OVC005 13/13 A3027 RMK AO2
cycle: 2

Station Type Date Time Source
KBNL TAF UTC NOAA

Error!


Example: see airport list